Time;durP1;ratioP1;P1;durP2;ratioP2;P2;SDS_P1;SDS_P2;PMS_P1;PMS_P2;Temp;Humidity;BMP_temperature;BMP_pressure;BME280_temperature;BME280_humidity;BME280_pressure;Samples;Min_cycle;Max_cycle;Signal;HPM_P1;HPM_P2
2021/07/04 00:00:46;;;;;;;8.30;6.32;;;;;;;-144.13;100.00;64086.75;4995134;28;20048;-73
2021/07/04 00:03:12;;;;;;;10.70;5.95;;;;;;;-144.13;100.00;64086.75;5010239;28;20650;-73
2021/07/04 00:05:40;;;;;;;7.68;5.80;;;;;;;-144.13;100.00;64086.75;5013551;28;20034;-73
2021/07/04 00:08:08;;;;;;;9.82;6.10;;;;;;;-144.13;100.00;64086.75;5012470;28;20067;-73
2021/07/04 00:10:41;;;;;;;8.45;6.55;;;;;;;-144.13;100.00;64086.75;5000919;28;20989;-73
2021/07/04 00:13:07;;;;;;;9.55;6.28;;;;;;;-144.13;100.00;64086.75;5013847;28;20061;-73
2021/07/04 00:15:40;;;;;;;7.70;6.38;;;;;;;-144.13;100.00;64086.75;5014161;28;20052;-73
2021/07/04 00:18:11;;;;;;;8.75;5.85;;;;;;;-144.13;100.00;64086.75;5027241;28;20566;-73
2021/07/04 00:20:38;;;;;;;9.35;6.40;;;;;;;-144.13;100.00;64086.75;5001230;28;20029;-73
2021/07/04 00:23:04;;;;;;;10.98;6.47;;;;;;;-144.13;100.00;64086.75;5013477;28;20033;-73
2021/07/04 00:25:30;;;;;;;8.68;6.30;;;;;;;-144.13;100.00;64086.75;5012495;28;20483;-73
2021/07/04 00:27:56;;;;;;;7.65;5.53;;;;;;;-144.13;100.00;64086.75;5012813;28;20021;-73
2021/07/04 00:30:23;;;;;;;9.48;6.18;;;;;;;-144.13;100.00;64086.75;5013663;28;20095;-73
2021/07/04 00:32:49;;;;;;;9.60;5.82;;;;;;;-144.13;100.00;64086.75;5011979;28;20116;-73
2021/07/04 00:35:16;;;;;;;8.05;6.45;;;;;;;-144.13;100.00;64086.75;5013818;28;20029;-73
2021/07/04 00:37:42;;;;;;;8.52;6.70;;;;;;;-144.13;100.00;64086.75;5012577;28;20064;-73
2021/07/04 00:40:09;;;;;;;8.40;6.03;;;;;;;-144.13;100.00;64086.75;5009874;28;20459;-73
2021/07/04 00:42:36;;;;;;;8.98;6.50;;;;;;;-144.13;100.00;64086.75;5033125;28;20038;-73
2021/07/04 00:45:08;;;;;;;7.95;6.60;;;;;;;-144.13;100.00;64086.75;4995193;28;20384;-73
2021/07/04 00:47:34;;;;;;;9.50;6.53;;;;;;;-144.13;100.00;64086.75;5004385;28;20132;-73
2021/07/04 00:49:59;;;;;;;7.63;6.60;;;;;;;-144.13;100.00;64086.75;5016953;28;20633;-73
2021/07/04 00:52:25;;;;;;;8.57;6.50;;;;;;;-144.13;100.00;64086.75;5016939;28;20026;-73
2021/07/04 00:54:51;;;;;;;11.27;6.75;;;;;;;-144.13;100.00;64086.75;5012194;28;20022;-73
2021/07/04 00:57:16;;;;;;;6.70;5.70;;;;;;;-144.13;100.00;64086.75;5015509;28;20042;-73
2021/07/04 00:59:42;;;;;;;9.27;6.10;;;;;;;-144.13;100.00;64086.75;5015768;28;20037;-73
2021/07/04 01:02:08;;;;;;;10.23;6.65;;;;;;;-144.13;100.00;64086.75;5014951;28;20352;-73
2021/07/04 01:04:33;;;;;;;11.40;6.57;;;;;;;-144.13;100.00;64086.75;5015176;28;20400;-73
2021/07/04 01:06:58;;;;;;;8.73;6.43;;;;;;;-144.13;100.00;64086.75;5018055;28;20104;-73
2021/07/04 01:09:24;;;;;;;11.55;6.70;;;;;;;-144.13;100.00;64086.75;5018244;28;20037;-73
2021/07/04 01:11:50;;;;;;;11.25;6.63;;;;;;;-144.13;100.00;64086.75;5014978;28;20022;-73
2021/07/04 01:14:16;;;;;;;9.75;6.63;;;;;;;-144.13;100.00;64086.75;5015106;28;20033;-73
2021/07/04 01:16:44;;;;;;;8.52;5.97;;;;;;;-144.13;100.00;64086.75;5013039;28;20053;-73
2021/07/04 01:19:14;;;;;;;9.93;6.88;;;;;;;-144.13;100.00;64086.75;5017896;28;20031;-73
2021/07/04 01:21:42;;;;;;;8.80;7.00;;;;;;;-144.13;100.00;64086.75;5010070;28;20029;-73
2021/07/04 01:24:08;;;;;;;9.10;7.05;;;;;;;-144.13;100.00;64086.75;4995734;28;20030;-71
2021/07/04 01:26:33;;;;;;;12.40;6.70;;;;;;;-144.13;100.00;64086.75;5013988;28;20068;-71
2021/07/04 01:28:59;;;;;;;8.88;7.38;;;;;;;-144.13;100.00;64086.75;5015974;28;20025;-72
2021/07/04 01:31:24;;;;;;;8.10;6.10;;;;;;;-144.13;100.00;64086.75;5011994;28;20383;-72
2021/07/04 01:33:50;;;;;;;9.40;6.50;;;;;;;-144.13;100.00;64086.75;5013253;28;20075;-72
2021/07/04 01:36:16;;;;;;;8.13;6.57;;;;;;;-144.13;100.00;64086.75;4996687;28;20143;-71
2021/07/04 01:38:42;;;;;;;8.50;6.55;;;;;;;-144.13;100.00;64086.75;5030401;28;20048;-71
2021/07/04 01:41:08;;;;;;;9.93;6.80;;;;;;;-144.13;100.00;64086.75;5002917;28;20014;-71
2021/07/04 01:43:33;;;;;;;11.82;8.35;;;;;;;-144.13;100.00;64086.75;5010924;28;20033;-71
2021/07/04 01:45:59;;;;;;;13.98;7.75;;;;;;;-144.13;100.00;64086.75;5016714;28;20416;-71
2021/07/04 01:48:24;;;;;;;12.02;7.60;;;;;;;-144.13;100.00;64086.75;5012582;28;20029;-71
2021/07/04 01:50:50;;;;;;;11.95;7.45;;;;;;;-144.13;100.00;64086.75;5018857;28;20053;-71
2021/07/04 01:53:19;;;;;;;12.38;7.72;;;;;;;-144.13;100.00;64086.75;5027976;28;20534;-71
2021/07/04 01:55:45;;;;;;;9.95;7.50;;;;;;;-144.13;100.00;64086.75;5015250;28;20021;-72
2021/07/04 01:58:11;;;;;;;11.70;8.43;;;;;;;-144.13;100.00;64086.75;5011485;28;20029;-71
2021/07/04 02:00:38;;;;;;;10.25;7.70;;;;;;;-144.13;100.00;64086.75;5017222;28;20025;-72
2021/07/04 02:03:06;;;;;;;9.75;7.78;;;;;;;-144.13;100.00;64086.75;5015769;28;20079;-72
2021/07/04 02:05:32;;;;;;;8.60;7.10;;;;;;;-144.13;100.00;64086.75;4998298;28;20033;-71
2021/07/04 02:07:58;;;;;;;10.18;7.90;;;;;;;-144.13;100.00;64086.75;5013616;28;20026;-71
2021/07/04 02:10:28;;;;;;;15.48;8.18;;;;;;;-144.13;100.00;64086.75;5003280;28;20038;-72
2021/07/04 02:12:54;;;;;;;11.90;8.05;;;;;;;-144.13;100.00;64086.75;5017611;28;20653;-72
2021/07/04 02:15:23;;;;;;;11.63;7.40;;;;;;;-144.13;100.00;64086.75;4995935;28;20064;-71
2021/07/04 02:17:49;;;;;;;9.60;7.00;;;;;;;-144.13;100.00;64086.75;5014070;28;20124;-72
2021/07/04 02:20:31;;;;;;;11.77;7.32;;;;;;;-144.13;100.00;64086.75;5013649;28;20105;-71
2021/07/04 02:23:01;;;;;;;12.00;8.57;;;;;;;-144.13;100.00;64086.75;4995027;28;20045;-71
2021/07/04 02:25:28;;;;;;;9.80;7.07;;;;;;;-144.13;100.00;64086.75;5025025;28;20022;-71
2021/07/04 02:27:54;;;;;;;10.73;7.85;;;;;;;-144.13;100.00;64086.75;5004278;28;20033;-71
2021/07/04 02:30:20;;;;;;;9.82;7.15;;;;;;;-144.13;100.00;64086.75;5015957;28;20032;-71
2021/07/04 02:32:46;;;;;;;10.82;7.93;;;;;;;-144.13;100.00;64086.75;5013955;28;20041;-72
2021/07/04 02:35:12;;;;;;;11.38;7.80;;;;;;;-144.13;100.00;64086.75;5015019;28;20037;-72
2021/07/04 02:37:37;;;;;;;12.27;8.55;;;;;;;-144.13;100.00;64086.75;5014366;28;20068;-72
2021/07/04 02:40:04;;;;;;;11.27;7.72;;;;;;;-144.13;100.00;64086.75;5016690;28;20029;-72
2021/07/04 02:42:31;;;;;;;14.63;7.95;;;;;;;-144.13;100.00;64086.75;5017548;28;20392;-72
2021/07/04 02:44:58;;;;;;;12.52;7.63;;;;;;;-144.13;100.00;64086.75;5017027;28;20068;-72
2021/07/04 02:47:25;;;;;;;10.90;7.63;;;;;;;-144.13;100.00;64086.75;5017581;28;20025;-72
2021/07/04 02:49:51;;;;;;;13.50;8.38;;;;;;;-144.13;100.00;64086.75;5011276;28;20383;-72
2021/07/04 02:52:16;;;;;;;11.55;7.75;;;;;;;-144.13;100.00;64086.75;5016496;28;20021;-72
2021/07/04 02:54:42;;;;;;;13.18;8.32;;;;;;;-144.13;100.00;64086.75;5013535;28;20025;-72
2021/07/04 02:57:07;;;;;;;10.88;8.48;;;;;;;-144.13;100.00;64086.75;4998097;28;20112;-72
2021/07/04 02:59:33;;;;;;;8.88;7.90;;;;;;;-144.13;100.00;64086.75;5015451;28;20111;-71
2021/07/04 03:01:58;;;;;;;11.48;8.63;;;;;;;-144.13;100.00;64086.75;5017841;28;20040;-72
2021/07/04 03:04:24;;;;;;;14.57;9.75;;;;;;;-144.13;100.00;64086.75;5019238;28;20041;-72
2021/07/04 03:06:49;;;;;;;15.55;10.27;;;;;;;-144.13;100.00;64086.75;5020490;28;20026;-71
2021/07/04 03:09:15;;;;;;;14.20;8.70;;;;;;;-144.13;100.00;64086.75;5015844;28;20914;-72
2021/07/04 03:11:41;;;;;;;10.18;8.18;;;;;;;-144.13;100.00;64086.75;5016435;28;20398;-72
2021/07/04 03:14:06;;;;;;;12.32;8.52;;;;;;;-144.13;100.00;64086.75;5001528;28;20036;-71
2021/07/04 03:16:32;;;;;;;14.15;9.23;;;;;;;-144.13;100.00;64086.75;5018783;28;20024;-72
2021/07/04 03:18:58;;;;;;;13.90;7.88;;;;;;;-144.13;100.00;64086.75;5027894;28;20397;-73
2021/07/04 03:21:23;;;;;;;12.25;8.32;;;;;;;-144.13;100.00;64086.75;5017772;28;20028;-71
2021/07/04 03:23:49;;;;;;;10.27;8.02;;;;;;;-144.13;100.00;64086.75;5013584;28;20042;-71
2021/07/04 03:26:14;;;;;;;13.32;8.50;;;;;;;-144.13;100.00;64086.75;5015106;28;20021;-72
2021/07/04 03:28:40;;;;;;;15.85;10.85;;;;;;;-144.13;100.00;64086.75;5013073;28;20460;-72
2021/07/04 03:31:05;;;;;;;14.02;9.15;;;;;;;-144.13;100.00;64086.75;5015675;28;20022;-71
2021/07/04 03:33:31;;;;;;;10.38;8.38;;;;;;;-144.13;100.00;64086.75;5014257;28;20675;-71
2021/07/04 03:35:56;;;;;;;11.35;8.65;;;;;;;-144.13;100.00;64086.75;5014543;28;20033;-72
2021/07/04 03:38:22;;;;;;;11.82;8.40;;;;;;;-144.13;100.00;64086.75;5014695;28;20476;-72
2021/07/04 03:40:48;;;;;;;12.98;9.43;;;;;;;-144.13;100.00;64086.75;5016129;28;20033;-72
2021/07/04 03:43:13;;;;;;;16.77;10.57;;;;;;;-144.13;100.00;64086.75;5017845;28;20513;-71
2021/07/04 03:45:38;;;;;;;15.75;12.05;;;;;;;-144.13;100.00;64086.75;5005141;28;20102;-72
2021/07/04 03:48:05;;;;;;;13.85;11.02;;;;;;;-144.13;100.00;64086.75;5019824;28;20483;-71
2021/07/04 03:50:30;;;;;;;13.88;11.27;;;;;;;-144.13;100.00;64086.75;5015789;28;20018;-72
2021/07/04 03:52:56;;;;;;;13.07;9.32;;;;;;;-144.13;100.00;64086.75;5006586;28;20096;-72
2021/07/04 03:55:23;;;;;;;20.50;11.15;;;;;;;-144.13;100.00;64086.75;5016421;28;20442;-72
2021/07/04 03:57:48;;;;;;;13.98;10.48;;;;;;;-144.13;100.00;64086.75;5003943;28;20037;-71
2021/07/04 04:00:14;;;;;;;15.85;10.00;;;;;;;-144.13;100.00;64086.75;5007294;28;20030;-72
2021/07/04 04:02:41;;;;;;;12.27;9.82;;;;;;;-144.13;100.00;64086.75;5018660;28;20025;-72
2021/07/04 04:05:07;;;;;;;15.60;10.38;;;;;;;-144.13;100.00;64086.75;5012426;28;20115;-72
2021/07/04 04:07:34;;;;;;;16.48;11.48;;;;;;;-144.13;100.00;64086.75;5022483;28;20391;-71
2021/07/04 04:09:59;;;;;;;16.17;11.60;;;;;;;-144.13;100.00;64086.75;5017034;28;20057;-72
2021/07/04 04:12:25;;;;;;;13.40;10.57;;;;;;;-144.13;100.00;64086.75;5021549;28;20122;-72
2021/07/04 04:14:50;;;;;;;12.40;9.98;;;;;;;-144.13;100.00;64086.75;5015725;28;20045;-72
2021/07/04 04:17:16;;;;;;;11.98;9.75;;;;;;;-144.13;100.00;64086.75;5015851;28;20025;-72
2021/07/04 04:19:42;;;;;;;12.27;9.20;;;;;;;-144.13;100.00;64086.75;5016086;28;20033;-71
2021/07/04 04:22:08;;;;;;;13.50;9.77;;;;;;;-144.13;100.00;64086.75;5003717;28;20653;-72
2021/07/04 04:24:33;;;;;;;15.48;10.68;;;;;;;-144.13;100.00;64086.75;5017543;28;20049;-72
2021/07/04 04:26:59;;;;;;;12.82;9.20;;;;;;;-144.13;100.00;64086.75;5017842;28;20025;-72
2021/07/04 04:29:24;;;;;;;12.15;9.88;;;;;;;-144.13;100.00;64086.75;5019827;28;20043;-72
2021/07/04 04:31:50;;;;;;;14.52;10.57;;;;;;;-144.13;100.00;64086.75;5001376;28;20072;-72
2021/07/04 04:34:16;;;;;;;11.65;9.27;;;;;;;-144.13;100.00;64086.75;5019827;28;20067;-72
2021/07/04 04:36:41;;;;;;;11.77;9.38;;;;;;;-144.13;100.00;64086.75;5017855;28;20104;-72
2021/07/04 04:39:07;;;;;;;12.57;9.65;;;;;;;-144.13;100.00;64086.75;5017857;28;20038;-72
2021/07/04 04:41:35;;;;;;;11.63;8.57;;;;;;;-144.13;100.00;64086.75;5015625;28;20116;-72
2021/07/04 04:44:01;;;;;;;13.55;8.90;;;;;;;-144.13;100.00;64086.75;5019229;28;20040;-72
2021/07/04 04:46:26;;;;;;;11.98;8.38;;;;;;;-144.13;100.00;64086.75;5000749;28;20026;-72
2021/07/04 04:48:52;;;;;;;12.80;8.77;;;;;;;-144.13;100.00;64086.75;5019018;28;20029;-72
2021/07/04 04:51:17;;;;;;;11.40;9.02;;;;;;;-144.13;100.00;64086.75;4997986;28;20123;-72
2021/07/04 04:53:43;;;;;;;12.07;8.73;;;;;;;-144.13;100.00;64086.75;5014238;28;20059;-72
2021/07/04 04:56:09;;;;;;;14.15;8.93;;;;;;;-144.13;100.00;64086.75;5003451;28;20422;-72
2021/07/04 04:58:34;;;;;;;15.02;9.30;;;;;;;-144.13;100.00;64086.75;5012832;28;20435;-72
2021/07/04 05:01:00;;;;;;;13.73;9.23;;;;;;;-144.13;100.00;64086.75;5014405;28;20056;-72
2021/07/04 05:03:25;;;;;;;11.40;8.70;;;;;;;-144.13;100.00;64086.75;5015023;28;20025;-72
2021/07/04 05:05:51;;;;;;;9.90;8.90;;;;;;;-144.13;100.00;64086.75;5014407;28;20029;-72
2021/07/04 05:08:17;;;;;;;14.23;8.38;;;;;;;-144.13;100.00;64086.75;5016199;28;20048;-72
2021/07/04 05:10:42;;;;;;;11.15;8.60;;;;;;;-144.13;100.00;64086.75;5027277;28;20033;-72
2021/07/04 05:13:08;;;;;;;11.05;8.13;;;;;;;-144.13;100.00;64086.75;5001465;28;20052;-72
2021/07/04 05:15:33;;;;;;;15.02;8.70;;;;;;;-144.13;100.00;64086.75;5000999;28;20033;-72
2021/07/04 05:18:04;;;;;;;11.05;7.75;;;;;;;-144.13;100.00;64086.75;5010534;28;20669;-72
2021/07/04 05:20:29;;;;;;;11.73;7.63;;;;;;;-144.13;100.00;64086.75;5032141;28;20527;-72
2021/07/04 05:22:55;;;;;;;10.70;7.43;;;;;;;-144.13;100.00;64086.75;5013339;28;20093;-72
2021/07/04 05:25:20;;;;;;;10.90;6.80;;;;;;;-144.13;100.00;64086.75;5000349;28;20121;-72
2021/07/04 05:27:46;;;;;;;9.77;7.00;;;;;;;-144.13;100.00;64086.75;5013438;28;20025;-72
2021/07/04 05:30:12;;;;;;;10.10;7.50;;;;;;;-144.13;100.00;64086.75;5016090;28;20112;-72
2021/07/04 05:32:37;;;;;;;10.43;7.00;;;;;;;-144.13;100.00;64086.75;5013618;28;20025;-72
2021/07/04 05:35:05;;;;;;;8.57;6.32;;;;;;;-144.13;100.00;64086.75;5014515;28;20613;-72
2021/07/04 05:37:32;;;;;;;7.63;6.45;;;;;;;-144.13;100.00;64086.75;5012764;28;20505;-72
2021/07/04 05:40:00;;;;;;;7.15;5.55;;;;;;;-144.13;100.00;64086.75;5002286;28;20595;-72
2021/07/04 05:42:25;;;;;;;8.63;5.68;;;;;;;-144.13;100.00;64086.75;5003013;28;20040;-72
2021/07/04 05:44:51;;;;;;;5.75;4.60;;;;;;;-144.13;100.00;64086.75;4997157;28;20025;-72
2021/07/04 05:47:17;;;;;;;8.02;5.53;;;;;;;-144.13;100.00;64086.75;5029801;28;20021;-72
2021/07/04 05:49:43;;;;;;;6.75;5.35;;;;;;;-144.13;100.00;64086.75;5010639;28;20384;-72
2021/07/04 05:52:09;;;;;;;9.15;5.70;;;;;;;-144.13;100.00;64086.75;5012194;28;20032;-72
2021/07/04 05:54:35;;;;;;;9.88;6.13;;;;;;;-144.13;100.00;64086.75;5014853;28;20546;-72
2021/07/04 05:57:05;;;;;;;6.68;5.45;;;;;;;-144.13;100.00;64086.75;5006136;28;20054;-72
2021/07/04 05:59:32;;;;;;;9.55;6.38;;;;;;;-144.13;100.00;64086.75;5013779;28;20409;-72
2021/07/04 06:01:57;;;;;;;8.95;5.60;;;;;;;-144.13;100.00;64086.75;5015294;28;20386;-72
2021/07/04 06:04:23;;;;;;;6.60;5.68;;;;;;;-144.13;100.00;64086.75;5018036;28;20022;-72
2021/07/04 06:06:48;;;;;;;7.82;6.00;;;;;;;-144.13;100.00;64086.75;5003995;28;20357;-72
2021/07/04 06:09:14;;;;;;;7.57;5.82;;;;;;;-144.13;100.00;64086.75;5016049;28;20025;-72
2021/07/04 06:11:39;;;;;;;6.70;5.40;;;;;;;-144.13;100.00;64086.75;5019429;28;20028;-72
2021/07/04 06:14:05;;;;;;;9.95;6.10;;;;;;;-144.13;100.00;64086.75;5015179;28;20026;-72
2021/07/04 06:16:30;;;;;;;9.43;5.95;;;;;;;-144.13;100.00;64086.75;5018274;28;20033;-72
2021/07/04 06:18:56;;;;;;;8.63;5.78;;;;;;;-144.13;100.00;64086.75;5030274;28;20033;-72
2021/07/04 06:21:21;;;;;;;7.70;5.70;;;;;;;-144.13;100.00;64086.75;5018772;28;20049;-72
2021/07/04 06:23:47;;;;;;;7.45;5.90;;;;;;;-144.13;100.00;64086.75;5015138;28;20100;-72
2021/07/04 06:26:12;;;;;;;8.52;6.35;;;;;;;-144.13;100.00;64086.75;5016827;28;20025;-73
2021/07/04 06:28:38;;;;;;;9.25;6.53;;;;;;;-144.13;100.00;64086.75;5017817;28;20034;-73
2021/07/04 06:31:03;;;;;;;10.63;6.13;;;;;;;-144.13;100.00;64086.75;5014702;28;20536;-72
2021/07/04 06:33:29;;;;;;;10.27;5.50;;;;;;;-144.13;100.00;64086.75;5019114;28;20034;-72
2021/07/04 06:35:54;;;;;;;8.75;5.90;;;;;;;-144.13;100.00;64086.75;5015434;28;20034;-72
2021/07/04 06:38:20;;;;;;;11.07;6.32;;;;;;;-144.13;100.00;64086.75;4999981;28;20080;-72
2021/07/04 06:40:45;;;;;;;9.95;5.68;;;;;;;-144.13;100.00;64086.75;5004645;28;20463;-72
2021/07/04 06:43:11;;;;;;;9.48;6.90;;;;;;;-144.13;100.00;64086.75;5004257;28;20157;-72
2021/07/04 06:45:36;;;;;;;9.60;6.15;;;;;;;-144.13;100.00;64086.75;5017546;28;20155;-72
2021/07/04 06:48:02;;;;;;;7.50;5.57;;;;;;;-144.13;100.00;64086.75;5017650;28;20035;-72
2021/07/04 06:50:27;;;;;;;6.57;5.78;;;;;;;-144.13;100.00;64086.75;5017106;28;20116;-73
2021/07/04 06:52:53;;;;;;;7.07;5.28;;;;;;;-144.13;100.00;64086.75;5016980;28;20025;-73
2021/07/04 06:55:18;;;;;;;9.57;5.63;;;;;;;-144.13;100.00;64086.75;5015379;28;20085;-72
2021/07/04 06:57:44;;;;;;;9.55;5.15;;;;;;;-144.13;100.00;64086.75;5020826;28;20028;-72
2021/07/04 07:00:13;;;;;;;7.68;5.25;;;;;;;-144.13;100.00;64086.75;5016562;28;20025;-72
2021/07/04 07:02:39;;;;;;;7.00;5.60;;;;;;;-144.13;100.00;64086.75;5016419;28;20034;-73
2021/07/04 07:05:06;;;;;;;8.00;5.75;;;;;;;-144.13;100.00;64086.75;5015642;28;20034;-72
2021/07/04 07:07:32;;;;;;;7.82;6.07;;;;;;;-144.13;100.00;64086.75;5014458;28;20103;-73
2021/07/04 07:09:57;;;;;;;6.07;5.30;;;;;;;-144.13;100.00;64086.75;5015995;28;20444;-72
2021/07/04 07:12:23;;;;;;;9.15;5.30;;;;;;;-144.13;100.00;64086.75;5015294;28;20562;-72
2021/07/04 07:14:48;;;;;;;7.50;5.65;;;;;;;-144.13;100.00;64086.75;5006047;28;20030;-72
2021/07/04 07:17:14;;;;;;;8.18;6.10;;;;;;;-144.13;100.00;64086.75;5001425;28;20025;-72
2021/07/04 07:19:39;;;;;;;7.05;6.00;;;;;;;-144.13;100.00;64086.75;5014148;28;20506;-72
2021/07/04 07:22:05;;;;;;;8.10;6.07;;;;;;;-144.13;100.00;64086.75;5011258;28;20378;-72
2021/07/04 07:24:30;;;;;;;6.70;5.50;;;;;;;-144.13;100.00;64086.75;5011083;28;20132;-72
2021/07/04 07:26:56;;;;;;;7.22;5.53;;;;;;;-144.13;100.00;64086.75;5012150;28;20579;-72
2021/07/04 07:29:22;;;;;;;6.20;5.40;;;;;;;-144.13;100.00;64086.75;5015327;28;20052;-72
2021/07/04 07:31:47;;;;;;;6.95;4.95;;;;;;;-144.13;100.00;64086.75;5015363;28;20040;-72
2021/07/04 07:34:13;;;;;;;6.63;5.65;;;;;;;-144.13;100.00;64086.75;5012245;28;20033;-73
2021/07/04 07:36:39;;;;;;;7.28;5.63;;;;;;;-144.13;100.00;64086.75;5012233;28;20034;-73
2021/07/04 07:39:06;;;;;;;8.88;5.10;;;;;;;-144.13;100.00;64086.75;5002455;28;20115;-72
2021/07/04 07:41:32;;;;;;;6.97;5.18;;;;;;;-144.13;100.00;64086.75;4998311;28;20022;-72
2021/07/04 07:43:58;;;;;;;10.13;6.15;;;;;;;-144.13;100.00;64086.75;5012828;28;20505;-73
2021/07/04 07:46:24;;;;;;;6.20;5.57;;;;;;;-144.13;100.00;64086.75;5011469;28;21587;-72
2021/07/04 07:48:49;;;;;;;7.13;5.88;;;;;;;-144.13;100.00;64086.75;5011759;28;20028;-73
2021/07/04 07:51:15;;;;;;;7.68;5.55;;;;;;;-144.13;100.00;64086.75;5007347;28;20025;-74
2021/07/04 07:53:41;;;;;;;8.90;6.38;;;;;;;-144.13;100.00;64086.75;5017045;28;20030;-74
2021/07/04 07:56:07;;;;;;;8.07;5.63;;;;;;;-144.13;100.00;64086.75;5017121;28;20033;-74
2021/07/04 07:58:33;;;;;;;8.55;6.00;;;;;;;-144.13;100.00;64086.75;5028353;28;20718;-74
2021/07/04 08:00:58;;;;;;;8.23;5.78;;;;;;;-144.13;100.00;64086.75;5016085;28;20104;-74
2021/07/04 08:03:24;;;;;;;9.10;6.03;;;;;;;-144.13;100.00;64086.75;5015435;28;20042;-74
2021/07/04 08:05:49;;;;;;;7.75;5.72;;;;;;;-144.13;100.00;64086.75;5014395;28;20470;-74
2021/07/04 08:08:15;;;;;;;8.65;6.03;;;;;;;-144.13;100.00;64086.75;5012459;28;20021;-74
2021/07/04 08:10:40;;;;;;;7.38;5.53;;;;;;;-144.13;100.00;64086.75;5002272;28;20017;-74
2021/07/04 08:13:06;;;;;;;7.43;5.95;;;;;;;-144.13;100.00;64086.75;5015224;28;20029;-74
2021/07/04 08:15:32;;;;;;;7.72;6.43;;;;;;;-144.13;100.00;64086.75;5016326;28;20411;-74
2021/07/04 08:17:57;;;;;;;9.15;6.22;;;;;;;-144.13;100.00;64086.75;5008392;28;20028;-74
2021/07/04 08:20:23;;;;;;;8.35;6.10;;;;;;;-144.13;100.00;64086.75;5014268;28;20026;-74
2021/07/04 08:22:49;;;;;;;8.10;6.35;;;;;;;-144.13;100.00;64086.75;4999686;28;20528;-74
2021/07/04 08:25:16;;;;;;;7.75;5.72;;;;;;;-144.13;100.00;64086.75;5009665;28;20044;-74
2021/07/04 08:27:42;;;;;;;7.40;5.03;;;;;;;-144.13;100.00;64086.75;5006151;28;20541;-74
2021/07/04 08:30:10;;;;;;;6.97;5.30;;;;;;;-144.13;100.00;64086.75;5012177;28;20466;-73
2021/07/04 08:32:36;;;;;;;6.72;5.75;;;;;;;-144.13;100.00;64086.75;5033023;28;20030;-74
2021/07/04 08:35:04;;;;;;;6.90;5.90;;;;;;;-144.13;100.00;64086.75;5015332;28;20083;-74
2021/07/04 08:37:29;;;;;;;8.50;6.30;;;;;;;-144.13;100.00;64086.75;5010521;28;20026;-74
2021/07/04 08:39:54;;;;;;;7.32;5.63;;;;;;;-144.13;100.00;64086.75;5014336;28;20390;-74
2021/07/04 08:42:20;;;;;;;7.55;5.97;;;;;;;-144.13;100.00;64086.75;5016398;28;20058;-74
2021/07/04 08:44:50;;;;;;;6.65;5.60;;;;;;;-144.13;100.00;64086.75;5014914;28;20099;-74
2021/07/04 08:47:17;;;;;;;5.70;5.10;;;;;;;-144.13;100.00;64086.75;5013950;28;20045;-74
2021/07/04 08:49:44;;;;;;;6.60;5.05;;;;;;;-144.13;100.00;64086.75;5031224;28;20027;-74
2021/07/04 08:52:09;;;;;;;6.53;5.47;;;;;;;-144.13;100.00;64086.75;5021103;28;20743;-74
2021/07/04 08:54:35;;;;;;;8.88;5.00;;;;;;;-144.13;100.00;64086.75;5033793;28;20029;-74
2021/07/04 08:57:01;;;;;;;6.85;5.55;;;;;;;-144.13;100.00;64086.75;5023293;28;20579;-74
2021/07/04 08:59:27;;;;;;;9.60;5.43;;;;;;;-144.13;100.00;64086.75;5003861;28;20099;-74
2021/07/04 09:01:53;;;;;;;5.82;4.93;;;;;;;-144.13;100.00;64086.75;5002087;28;20475;-74
2021/07/04 09:04:20;;;;;;;6.55;5.10;;;;;;;-144.13;100.00;64086.75;5007044;28;20507;-74
2021/07/04 09:06:50;;;;;;;5.50;4.47;;;;;;;-144.13;100.00;64086.75;5006378;28;20029;-74
2021/07/04 09:09:26;;;;;;;5.82;4.22;;;;;;;-144.13;100.00;64086.75;5019074;28;20033;-74
2021/07/04 09:11:52;;;;;;;5.38;3.50;;;;;;;-144.13;100.00;64086.75;5004767;28;20029;-74
2021/07/04 09:14:25;;;;;;;4.07;3.67;;;;;;;-144.13;100.00;64086.75;5020282;28;20422;-74
2021/07/04 09:16:50;;;;;;;5.43;4.05;;;;;;;-144.13;100.00;64086.75;5018386;28;20029;-74
2021/07/04 09:19:16;;;;;;;5.85;3.90;;;;;;;-144.13;100.00;64086.75;5016426;28;20037;-74
2021/07/04 09:21:42;;;;;;;4.15;3.50;;;;;;;-144.13;100.00;64086.75;5020664;28;20304;-75
2021/07/04 09:24:25;;;;;;;4.10;3.58;;;;;;;-144.13;100.00;64086.75;5001320;28;20746;-74
2021/07/04 09:26:51;;;;;;;4.25;3.00;;;;;;;-144.13;100.00;64086.75;5017917;28;20028;-75
2021/07/04 09:29:45;;;;;;;3.53;3.22;;;;;;;-144.13;100.00;64086.75;5033700;28;20049;-75
2021/07/04 09:32:17;;;;;;;4.85;3.05;;;;;;;-144.13;100.00;64086.75;5030233;28;20432;-74
2021/07/04 09:35:12;;;;;;;6.40;3.45;;;;;;;-144.13;100.00;64086.75;5004785;28;20115;-74
2021/07/04 09:37:42;;;;;;;2.80;2.53;;;;;;;-144.13;100.00;64086.75;5019641;28;20045;-74
2021/07/04 09:40:17;;;;;;;4.53;3.05;;;;;;;-144.13;100.00;64086.75;5007300;28;20364;-74
2021/07/04 09:43:03;;;;;;;3.70;3.30;;;;;;;-144.13;100.00;64086.75;5006462;28;20036;-74
2021/07/04 09:45:47;;;;;;;5.00;2.80;;;;;;;-144.13;100.00;64086.75;5037461;28;21248;-74
2021/07/04 09:48:29;;;;;;;3.20;2.63;;;;;;;-144.13;100.00;64086.75;5018742;28;20053;-74
2021/07/04 09:50:56;;;;;;;4.70;3.33;;;;;;;-144.13;100.00;64086.75;5018799;28;20076;-75
2021/07/04 09:53:37;;;;;;;4.57;3.17;;;;;;;-144.13;100.00;64086.75;5030673;28;20030;-75
2021/07/04 09:56:16;;;;;;;4.03;3.47;;;;;;;-144.13;100.00;64086.75;5021460;28;20133;-74
2021/07/04 09:58:46;;;;;;;5.88;3.60;;;;;;;-144.13;100.00;64086.75;5021299;28;20026;-74
2021/07/04 10:01:29;;;;;;;5.88;3.47;;;;;;;-144.13;100.00;64086.75;5017511;28;20033;-74
2021/07/04 10:03:55;;;;;;;5.90;3.60;;;;;;;-144.13;100.00;64086.75;5018474;28;20057;-75
2021/07/04 10:06:21;;;;;;;3.63;2.95;;;;;;;-144.13;100.00;64086.75;5020124;28;20478;-76
2021/07/04 10:08:47;;;;;;;3.90;3.30;;;;;;;-144.13;100.00;64086.75;5013947;28;20029;-74
2021/07/04 10:11:14;;;;;;;4.35;3.58;;;;;;;-144.13;100.00;64086.75;5005512;28;20029;-75
2021/07/04 10:13:44;;;;;;;3.47;3.13;;;;;;;-144.13;100.00;64086.75;5018317;28;20037;-74
2021/07/04 10:16:12;;;;;;;5.35;3.58;;;;;;;-144.13;100.00;64086.75;5018816;28;20026;-74
2021/07/04 10:18:38;;;;;;;3.47;3.17;;;;;;;-144.13;100.00;64086.75;5008257;28;20038;-74
2021/07/04 10:21:05;;;;;;;4.10;3.30;;;;;;;-144.13;100.00;64086.75;5017007;28;20108;-74
2021/07/04 10:23:31;;;;;;;3.90;3.50;;;;;;;-144.13;100.00;64086.75;5036851;28;20045;-74
2021/07/04 10:25:59;;;;;;;5.07;3.70;;;;;;;-144.13;100.00;64086.75;5018525;28;20034;-74
2021/07/04 10:28:27;;;;;;;5.50;5.00;;;;;;;-144.13;100.00;64086.75;5021512;28;21889;-74
2021/07/04 10:30:53;;;;;;;13.48;9.45;;;;;;;-144.13;100.00;64086.75;5018224;28;20037;-74
2021/07/04 10:33:35;;;;;;;22.60;14.75;;;;;;;-144.13;100.00;64086.75;5006155;28;20570;-74
2021/07/04 10:36:15;;;;;;;3.92;3.50;;;;;;;-144.13;100.00;64086.75;5017886;28;20049;-74
2021/07/04 10:38:50;;;;;;;7.38;6.50;;;;;;;-144.13;100.00;64086.75;5018979;28;20053;-75
2021/07/04 10:41:19;;;;;;;4.22;3.25;;;;;;;-144.13;100.00;64086.75;4998355;28;20368;-74
2021/07/04 10:44:04;;;;;;;5.18;3.85;;;;;;;-144.13;100.00;64086.75;5011170;28;20450;-74
2021/07/04 10:46:43;;;;;;;3.88;3.15;;;;;;;-144.13;100.00;64086.75;5009485;28;20070;-74
2021/07/04 10:49:17;;;;;;;6.18;3.15;;;;;;;-144.13;100.00;64086.75;5017834;28;20124;-74
2021/07/04 10:51:55;;;;;;;4.22;3.10;;;;;;;-144.13;100.00;64086.75;5021481;28;20073;-74
2021/07/04 10:54:51;;;;;;;3.55;3.17;;;;;;;-144.13;100.00;64086.75;5000602;28;20116;-74
2021/07/04 10:57:31;;;;;;;3.63;3.25;;;;;;;-144.13;100.00;64086.75;5009497;28;20825;-74
2021/07/04 11:00:00;;;;;;;3.83;3.42;;;;;;;-144.13;100.00;64086.75;5011964;28;20030;-74
2021/07/04 11:02:46;;;;;;;4.50;3.47;;;;;;;-144.13;100.00;64086.75;5013056;28;20029;-74
2021/07/04 11:05:18;;;;;;;4.50;3.58;;;;;;;-144.13;100.00;64086.75;5020883;28;20052;-74
2021/07/04 11:07:55;;;;;;;6.03;3.80;;;;;;;-144.13;100.00;64086.75;5015859;28;20040;-74